createdAt,value
2017-02-26T00:00:01.251Z,21.4
2017-02-26T00:01:15.615Z,21.4
2017-02-26T00:02:30.011Z,21.43
2017-02-26T00:03:43.815Z,21.37
2017-02-26T00:04:58.259Z,21.35
2017-02-26T00:06:11.365Z,21.4
2017-02-26T00:07:25.111Z,21.46
2017-02-26T00:08:39.536Z,21.53
2017-02-26T00:09:53.916Z,21.53
2017-02-26T00:11:07.690Z,21.49
2017-02-26T00:12:22.087Z,21.4
2017-02-26T00:13:36.532Z,21.5
2017-02-26T00:14:50.887Z,21.43
2017-02-26T00:16:05.284Z,21.42
2017-02-26T00:17:19.689Z,21.4
2017-02-26T00:18:34.114Z,21.37
2017-02-26T00:19:48.503Z,21.44
2017-02-26T00:21:02.892Z,21.5
2017-02-26T00:22:17.312Z,21.5
2017-02-26T00:23:30.453Z,21.47
2017-02-26T00:24:44.209Z,21.53
2017-02-26T00:25:58.656Z,21.54
2017-02-26T00:27:13.027Z,21.56
2017-02-26T00:28:27.458Z,21.5
2017-02-26T00:29:41.865Z,21.52
2017-02-26T00:30:56.270Z,21.5
2017-02-26T00:32:09.369Z,21.5
2017-02-26T00:33:23.743Z,21.49
2017-02-26T00:34:38.144Z,21.5
2017-02-26T00:35:51.874Z,21.54
2017-02-26T00:37:06.275Z,21.53
2017-02-26T00:38:20.733Z,21.54
2017-02-26T00:39:35.154Z,21.54
2017-02-26T00:40:48.927Z,21.59
2017-02-26T00:42:03.329Z,21.53
2017-02-26T00:43:17.730Z,21.53
2017-02-26T00:44:32.140Z,21.61
2017-02-26T00:45:45.908Z,21.52
2017-02-26T00:47:00.346Z,21.58
2017-02-26T00:48:14.801Z,21.46
2017-02-26T00:49:28.604Z,21.53
2017-02-26T00:50:42.390Z,21.42
2017-02-26T00:51:56.774Z,21.47
2017-02-26T00:53:11.164Z,21.53
2017-02-26T00:54:24.889Z,21.52
2017-02-26T00:55:38.652Z,21.52
2017-02-26T00:56:52.459Z,21.52
2017-02-26T00:58:06.838Z,21.44
2017-02-26T00:59:20.589Z,21.43
2017-02-26T01:00:34.953Z,21.44
2017-02-26T01:01:49.360Z,21.5
2017-02-26T01:03:03.749Z,21.44
2017-02-26T01:04:18.130Z,21.47
2017-02-26T01:05:32.541Z,21.49
2017-02-26T01:06:46.279Z,21.49
2017-02-26T01:08:00.659Z,21.59
2017-02-26T01:09:14.375Z,21.5
2017-02-26T01:10:28.124Z,21.53
2017-02-26T01:11:41.913Z,21.56
2017-02-26T01:12:56.320Z,21.44
2017-02-26T01:14:10.729Z,21.5
2017-02-26T01:15:25.123Z,21.49
2017-02-26T01:16:38.211Z,21.46
2017-02-26T01:17:51.303Z,21.56
2017-02-26T01:19:05.699Z,21.47
2017-02-26T01:20:18.827Z,21.5
2017-02-26T01:21:32.582Z,21.59
2017-02-26T01:22:45.693Z,21.52
2017-02-26T01:23:59.455Z,21.43
2017-02-26T01:25:13.844Z,21.43
2017-02-26T01:26:28.253Z,21.42
2017-02-26T01:27:42.639Z,21.44
2017-02-26T01:28:56.383Z,21.38
2017-02-26T01:30:10.803Z,21.42
2017-02-26T01:31:25.222Z,21.4
2017-02-26T01:32:38.325Z,21.38
2017-02-26T01:33:52.715Z,21.35
2017-02-26T01:35:07.149Z,21.32
2017-02-26T01:36:21.556Z,21.31
2017-02-26T01:37:36.022Z,21.21
2017-02-26T01:38:50.378Z,21.16
2017-02-26T01:40:04.780Z,21.12
2017-02-26T01:41:19.141Z,21.09
2017-02-26T01:42:33.538Z,21.17
2017-02-26T01:43:47.953Z,21.06
2017-02-26T01:45:02.343Z,21.14
2017-02-26T01:46:16.741Z,21.1
2017-02-26T01:47:31.112Z,21.16
2017-02-26T01:48:45.498Z,21.09
2017-02-26T01:49:59.890Z,21.09
2017-02-26T01:51:14.305Z,21.16
2017-02-26T01:52:28.667Z,21.21
2017-02-26T01:53:41.804Z,21.12
2017-02-26T01:54:56.210Z,21.19
2017-02-26T01:56:10.582Z,21.1
2017-02-26T01:57:25.068Z,21.12
2017-02-26T01:58:38.855Z,21.22
2017-02-26T01:59:53.232Z,21.12
2017-02-26T02:01:07.608Z,21.19
2017-02-26T02:02:22.005Z,21.22
2017-02-26T02:03:36.384Z,21.21
2017-02-26T02:04:50.751Z,21.24
2017-02-26T02:06:05.119Z,21.25
2017-02-26T02:07:19.536Z,21.25
2017-02-26T02:08:33.319Z,21.17
2017-02-26T02:09:47.059Z,21.12
2017-02-26T02:11:01.470Z,21.17
2017-02-26T02:12:15.194Z,21.14
2017-02-26T02:13:29.558Z,21.13
2017-02-26T02:14:43.935Z,21.1
2017-02-26T02:15:58.314Z,21.07
2017-02-26T02:17:12.712Z,21.07
2017-02-26T02:18:25.857Z,21.07
2017-02-26T02:19:38.950Z,21.17
2017-02-26T02:20:53.360Z,21.14
2017-02-26T02:22:07.777Z,21.07
2017-02-26T02:23:22.129Z,21.12
2017-02-26T02:24:36.531Z,21.17
2017-02-26T02:25:49.654Z,21.12
2017-02-26T02:27:04.072Z,21.1
2017-02-26T02:28:18.462Z,21.09
2017-02-26T02:29:32.212Z,21.1
2017-02-26T02:30:46.624Z,21.09
2017-02-26T02:32:01.067Z,21.12
2017-02-26T02:33:14.812Z,21.01
2017-02-26T02:34:29.204Z,21.03
2017-02-26T02:35:43.577Z,20.98
2017-02-26T02:36:56.686Z,20.98
2017-02-26T02:38:11.063Z,21.03
2017-02-26T02:39:25.469Z,21.06
2017-02-26T02:40:39.843Z,21.09
2017-02-26T02:41:52.954Z,21.03
2017-02-26T02:43:07.326Z,21.01
2017-02-26T02:44:21.745Z,20.98
2017-02-26T02:45:35.484Z,20.97
2017-02-26T02:46:49.882Z,20.94
2017-02-26T02:48:04.261Z,20.92
2017-02-26T02:49:18.698Z,20.88
2017-02-26T02:50:33.093Z,20.91
2017-02-26T02:51:47.501Z,20.91
2017-02-26T02:53:01.244Z,20.88
2017-02-26T02:54:14.980Z,20.91
2017-02-26T02:55:29.410Z,20.94
2017-02-26T02:56:43.828Z,20.91
2017-02-26T02:57:58.212Z,20.82
2017-02-26T02:59:11.959Z,20.87
2017-02-26T03:00:25.761Z,20.84
2017-02-26T03:01:39.550Z,20.76
2017-02-26T03:02:54.026Z,20.76
2017-02-26T03:04:08.707Z,20.8
2017-02-26T03:05:23.295Z,20.79
2017-02-26T03:06:37.056Z,20.8
2017-02-26T03:07:51.447Z,20.8
2017-02-26T03:09:05.903Z,20.79
2017-02-26T03:10:19.632Z,20.76
2017-02-26T03:11:33.402Z,20.79
2017-02-26T03:12:46.512Z,20.73
2017-02-26T03:14:00.910Z,20.76
2017-02-26T03:15:15.266Z,20.82
2017-02-26T03:16:29.625Z,20.77
2017-02-26T03:17:44.029Z,20.82
2017-02-26T03:18:58.358Z,20.76
2017-02-26T03:20:12.742Z,20.79
2017-02-26T03:21:27.127Z,20.79
2017-02-26T03:22:41.554Z,20.84
2017-02-26T03:23:54.991Z,20.87
2017-02-26T03:25:09.864Z,20.85
2017-02-26T03:26:23.304Z,20.79
2017-02-26T03:27:36.431Z,20.76
2017-02-26T03:28:50.189Z,20.79
2017-02-26T03:30:05.080Z,20.74
2017-02-26T03:31:19.881Z,20.79
2017-02-26T03:32:34.509Z,20.79
2017-02-26T03:33:49.620Z,20.79
2017-02-26T03:35:03.960Z,20.8
2017-02-26T03:36:18.334Z,20.77
2017-02-26T03:37:32.710Z,20.84
2017-02-26T03:38:46.461Z,20.76
2017-02-26T03:40:00.817Z,20.79
2017-02-26T03:41:15.240Z,20.76
2017-02-26T03:42:29.020Z,20.79
2017-02-26T03:43:42.776Z,20.74
2017-02-26T03:44:57.742Z,20.64
2017-02-26T03:46:12.113Z,20.66
2017-02-26T03:47:38.828Z,20.58
2017-02-26T03:48:53.433Z,20.62
2017-02-26T03:50:07.808Z,20.7
2017-02-26T03:51:22.218Z,20.67
2017-02-26T03:52:35.991Z,20.59
2017-02-26T03:53:49.730Z,20.59
2017-02-26T03:55:04.114Z,20.61
2017-02-26T03:56:17.901Z,20.66
2017-02-26T03:57:31.679Z,20.62
2017-02-26T03:58:45.432Z,20.64
2017-02-26T03:59:59.843Z,20.62
2017-02-26T04:01:14.823Z,20.7
2017-02-26T04:02:29.247Z,20.74
2017-02-26T04:03:42.365Z,20.73
2017-02-26T04:04:56.146Z,20.76
2017-02-26T04:06:10.531Z,20.8
2017-02-26T04:07:24.897Z,20.76
2017-02-26T04:08:38.621Z,20.79
2017-02-26T04:09:52.982Z,20.82
2017-02-26T04:11:26.695Z,20.84
2017-02-26T04:12:40.426Z,20.79
2017-02-26T04:13:54.787Z,20.8
2017-02-26T04:15:08.552Z,20.84
2017-02-26T04:16:22.959Z,20.82
2017-02-26T04:17:37.342Z,20.77
2017-02-26T04:18:51.743Z,20.77
2017-02-26T04:20:05.499Z,20.8
2017-02-26T04:21:19.271Z,20.8
2017-02-26T04:22:32.382Z,20.85
2017-02-26T04:23:46.763Z,20.8
2017-02-26T04:25:01.170Z,20.91
2017-02-26T04:26:15.592Z,20.92
2017-02-26T04:27:28.947Z,20.92
2017-02-26T04:28:43.325Z,20.88
2017-02-26T04:29:58.376Z,20.89
2017-02-26T04:31:12.776Z,20.92
2017-02-26T04:32:26.571Z,20.89
2017-02-26T04:33:40.190Z,20.91
2017-02-26T04:34:55.333Z,20.92
2017-02-26T04:36:10.088Z,20.92
2017-02-26T04:37:24.213Z,20.92
2017-02-26T04:38:37.891Z,20.92
2017-02-26T04:39:52.301Z,20.92
2017-02-26T04:41:07.010Z,20.94
2017-02-26T04:42:22.347Z,20.85
2017-02-26T04:43:36.769Z,20.89
2017-02-26T04:44:50.511Z,20.88
2017-02-26T04:46:04.899Z,20.88
2017-02-26T04:47:19.281Z,20.85
2017-02-26T04:48:33.720Z,20.87
2017-02-26T04:49:47.469Z,20.88
2017-02-26T04:51:01.218Z,20.85
2017-02-26T04:52:15.563Z,20.87
2017-02-26T04:53:29.989Z,20.82
2017-02-26T04:54:43.768Z,20.85
2017-02-26T04:55:58.159Z,20.87
2017-02-26T04:57:11.894Z,20.87
2017-02-26T04:58:26.283Z,20.87
2017-02-26T04:59:40.657Z,20.85
2017-02-26T05:00:55.024Z,20.88
2017-02-26T05:02:09.629Z,20.85
2017-02-26T05:03:24.131Z,20.88
2017-02-26T05:04:37.913Z,20.88
2017-02-26T05:05:51.725Z,20.82
2017-02-26T05:07:06.137Z,20.77
2017-02-26T05:08:21.052Z,20.77
2017-02-26T05:09:34.794Z,20.73
2017-02-26T05:10:48.498Z,20.74
2017-02-26T05:12:02.897Z,20.74
2017-02-26T05:13:17.306Z,20.79
2017-02-26T05:14:31.129Z,20.79
2017-02-26T05:15:44.850Z,20.72
2017-02-26T05:16:59.248Z,20.76
2017-02-26T05:18:12.972Z,20.8
2017-02-26T05:19:27.405Z,20.76
2017-02-26T05:20:41.132Z,20.84
2017-02-26T05:21:55.533Z,20.76
2017-02-26T05:23:09.965Z,20.73
2017-02-26T05:24:24.379Z,20.73
2017-02-26T05:25:38.758Z,20.73
2017-02-26T05:26:52.544Z,20.74
2017-02-26T05:28:06.921Z,20.76
2017-02-26T05:29:20.683Z,20.69
2017-02-26T05:30:35.196Z,20.79
2017-02-26T05:31:49.650Z,20.77
2017-02-26T05:33:04.062Z,20.87
2017-02-26T05:34:18.503Z,20.82
2017-02-26T05:35:32.255Z,20.8
2017-02-26T05:36:46.665Z,20.84
2017-02-26T05:38:01.099Z,20.79
2017-02-26T05:39:15.489Z,20.82
2017-02-26T05:40:29.247Z,20.87
2017-02-26T05:41:43.646Z,20.79
2017-02-26T05:42:58.020Z,20.77
2017-02-26T05:44:11.757Z,20.79
2017-02-26T05:45:26.178Z,20.74
2017-02-26T05:46:40.561Z,20.73
2017-02-26T05:47:54.926Z,20.64
2017-02-26T05:49:09.305Z,20.62
2017-02-26T05:50:23.037Z,20.69
2017-02-26T05:51:37.426Z,20.67
2017-02-26T05:52:51.863Z,20.64
2017-02-26T05:54:06.281Z,20.66
2017-02-26T05:55:20.684Z,20.62
2017-02-26T05:56:35.068Z,20.5
2017-02-26T05:57:48.834Z,20.58
2017-02-26T05:59:03.234Z,20.48
2017-02-26T06:00:17.636Z,20.59
2017-02-26T06:01:31.977Z,20.51
2017-02-26T06:02:45.678Z,20.57
2017-02-26T06:04:00.083Z,20.51
2017-02-26T06:05:14.453Z,20.57
2017-02-26T06:06:28.826Z,20.5
2017-02-26T06:07:43.237Z,20.47
2017-02-26T06:08:57.594Z,20.55
2017-02-26T06:10:11.348Z,20.47
2017-02-26T06:11:25.743Z,20.5
2017-02-26T06:12:39.501Z,20.5
2017-02-26T06:13:53.278Z,20.48
2017-02-26T06:15:07.661Z,20.54
2017-02-26T06:16:22.068Z,20.5
2017-02-26T06:17:36.427Z,20.5
2017-02-26T06:18:50.876Z,20.39
2017-02-26T06:20:05.297Z,20.48
2017-02-26T06:21:19.706Z,20.5
2017-02-26T06:22:34.103Z,20.5
2017-02-26T06:23:47.825Z,20.48
2017-02-26T06:25:02.269Z,20.35
2017-02-26T06:26:16.679Z,20.41
2017-02-26T06:27:30.455Z,20.41
2017-02-26T06:28:44.847Z,20.39
2017-02-26T06:29:59.287Z,20.43
2017-02-26T06:31:13.684Z,20.41
2017-02-26T06:32:28.053Z,20.5
2017-02-26T06:33:41.810Z,20.42
2017-02-26T06:34:56.221Z,20.5
2017-02-26T06:36:10.624Z,20.41
2017-02-26T06:37:24.371Z,20.42
2017-02-26T06:38:38.223Z,20.47
2017-02-26T06:39:52.005Z,20.36
2017-02-26T06:41:06.375Z,20.35
2017-02-26T06:42:20.749Z,20.31
2017-02-26T06:43:35.190Z,20.31
2017-02-26T06:44:48.288Z,20.28
2017-02-26T06:46:02.686Z,20.24
2017-02-26T06:47:17.097Z,20.26
2017-02-26T06:48:31.465Z,20.31
2017-02-26T06:49:45.853Z,20.23
2017-02-26T06:50:59.619Z,20.2
2017-02-26T06:52:13.988Z,20.08
2017-02-26T06:53:27.740Z,20.08
2017-02-26T06:54:42.133Z,20.1
2017-02-26T06:55:55.827Z,20.11
2017-02-26T06:57:09.576Z,20.1
2017-02-26T06:58:23.330Z,20.11
2017-02-26T06:59:36.420Z,20.06
2017-02-26T07:00:49.535Z,20.1
2017-02-26T07:02:03.900Z,20.06
2017-02-26T07:03:18.313Z,20.14
2017-02-26T07:04:32.642Z,20.11
2017-02-26T07:05:47.032Z,20.11
2017-02-26T07:07:01.449Z,20.1
2017-02-26T07:08:15.858Z,20.08
2017-02-26T07:09:30.218Z,20.2
2017-02-26T07:10:44.583Z,20.06
2017-02-26T07:11:58.991Z,20.1
2017-02-26T07:13:12.757Z,20.08
2017-02-26T07:14:26.516Z,20.13
2017-02-26T07:15:40.921Z,20.16
2017-02-26T07:16:55.309Z,20.14
2017-02-26T07:18:08.451Z,20.21
2017-02-26T07:19:22.837Z,20.2
2017-02-26T07:20:37.269Z,20.2
2017-02-26T07:21:51.650Z,20.17
2017-02-26T07:23:06.009Z,20.18
2017-02-26T07:24:20.405Z,20.17
2017-02-26T07:25:34.780Z,20.28
2017-02-26T07:26:49.195Z,20.31
2017-02-26T07:28:03.563Z,20.28
2017-02-26T07:29:17.312Z,20.26
2017-02-26T07:30:31.715Z,20.18
2017-02-26T07:31:45.434Z,20.26
2017-02-26T07:32:59.825Z,20.32
2017-02-26T07:34:13.588Z,20.26
2017-02-26T07:35:27.324Z,20.26
2017-02-26T07:36:41.759Z,20.26
2017-02-26T07:37:56.164Z,20.29
2017-02-26T07:39:10.575Z,20.26
2017-02-26T07:40:25.019Z,20.24
2017-02-26T07:41:39.417Z,20.28
2017-02-26T07:42:52.519Z,20.21
2017-02-26T07:44:06.901Z,20.23
2017-02-26T07:45:19.988Z,20.26
2017-02-26T07:46:34.398Z,20.24
2017-02-26T07:47:48.794Z,20.26
2017-02-26T07:49:03.238Z,20.26
2017-02-26T07:50:17.626Z,20.29
2017-02-26T07:51:31.341Z,20.28
2017-02-26T07:52:45.718Z,20.2
2017-02-26T07:54:00.100Z,20.23
2017-02-26T07:55:14.536Z,20.14
2017-02-26T07:56:28.930Z,20.11
2017-02-26T07:57:43.301Z,20.2
2017-02-26T07:58:57.041Z,20.06
2017-02-26T08:00:11.475Z,20.08
2017-02-26T08:01:25.912Z,20.1
2017-02-26T08:02:39.676Z,20.05
2017-02-26T08:03:54.052Z,20.1
2017-02-26T08:05:08.435Z,20.06
2017-02-26T08:06:22.792Z,19.98
2017-02-26T08:07:37.206Z,19.95
2017-02-26T08:08:51.624Z,20.05
2017-02-26T08:10:06.023Z,19.96
2017-02-26T08:11:19.833Z,20.06
2017-02-26T08:12:34.251Z,20.08
2017-02-26T08:13:48.602Z,20.02
2017-02-26T08:15:02.965Z,19.99
2017-02-26T08:16:17.317Z,20.01
2017-02-26T08:17:31.752Z,19.96
2017-02-26T08:18:46.140Z,20.01
2017-02-26T08:20:00.520Z,19.95
2017-02-26T08:21:14.907Z,19.98
2017-02-26T08:22:29.280Z,19.98
2017-02-26T08:23:43.672Z,20.05
2017-02-26T08:24:57.402Z,20.02
2017-02-26T08:26:11.189Z,20.1
2017-02-26T08:27:24.897Z,20.11
2017-02-26T08:28:38.662Z,20.1
2017-02-26T08:29:53.103Z,20.05
2017-02-26T08:31:07.504Z,20.08
2017-02-26T08:32:21.910Z,20.08
2017-02-26T08:33:35.683Z,20.17
2017-02-26T08:34:49.420Z,20.08
2017-02-26T08:36:03.804Z,20.16
2017-02-26T08:37:18.155Z,19.99
2017-02-26T08:38:32.558Z,20.05
2017-02-26T08:39:46.310Z,20.1
2017-02-26T08:41:00.695Z,20.11
2017-02-26T08:42:15.069Z,20.06
2017-02-26T08:43:29.463Z,19.98
2017-02-26T08:44:43.243Z,20.06
2017-02-26T08:45:57.715Z,20.2
2017-02-26T08:47:12.104Z,20.05
2017-02-26T08:48:25.824Z,20.1
2017-02-26T08:49:40.244Z,20.16
2017-02-26T08:50:54.662Z,20.11
2017-02-26T08:52:09.058Z,20.16
2017-02-26T08:53:22.848Z,20.2
2017-02-26T08:54:37.190Z,20.2
2017-02-26T08:55:51.602Z,20.23
2017-02-26T08:57:06.010Z,20.2
2017-02-26T08:58:20.400Z,20.2
2017-02-26T08:59:34.137Z,20.11
2017-02-26T09:00:48.552Z,20.14
2017-02-26T09:02:02.297Z,20.18
2017-02-26T09:03:16.081Z,20.1
2017-02-26T09:04:30.488Z,20.13
2017-02-26T09:05:44.869Z,20.13
2017-02-26T09:06:58.609Z,20.18
2017-02-26T09:08:13.029Z,20.23
2017-02-26T09:09:27.427Z,20.21
2017-02-26T09:10:41.810Z,20.23
2017-02-26T09:11:55.561Z,20.24
2017-02-26T09:13:10.012Z,20.33
2017-02-26T09:14:24.396Z,20.29
2017-02-26T09:15:38.803Z,20.29
2017-02-26T09:16:53.195Z,20.28
2017-02-26T09:18:07.595Z,20.28
2017-02-26T09:19:22.007Z,20.26
2017-02-26T09:20:36.408Z,20.33
2017-02-26T09:21:50.763Z,20.28
2017-02-26T09:23:05.177Z,20.35
2017-02-26T09:24:19.537Z,20.31
2017-02-26T09:25:33.971Z,20.33
2017-02-26T09:26:47.694Z,20.38
2017-02-26T09:28:02.075Z,20.47
2017-02-26T09:29:15.833Z,20.39
2017-02-26T09:30:30.252Z,20.43
2017-02-26T09:31:44.019Z,20.48
2017-02-26T09:32:57.782Z,20.51
2017-02-26T09:34:12.182Z,20.48
2017-02-26T09:35:26.605Z,20.47
2017-02-26T09:36:40.340Z,20.58
2017-02-26T09:37:53.461Z,20.58
2017-02-26T09:39:07.891Z,20.59
2017-02-26T09:40:21.639Z,20.54
2017-02-26T09:41:36.050Z,20.64
2017-02-26T09:42:50.520Z,20.62
2017-02-26T09:44:04.910Z,20.67
2017-02-26T09:45:19.349Z,20.67
2017-02-26T09:46:33.725Z,20.64
2017-02-26T09:47:47.503Z,20.73
2017-02-26T09:49:01.907Z,20.69
2017-02-26T09:50:16.328Z,20.77
2017-02-26T09:51:30.712Z,20.73
2017-02-26T09:52:44.446Z,20.77
2017-02-26T09:53:58.870Z,20.91
2017-02-26T09:55:13.307Z,21.13
2017-02-26T09:56:27.051Z,21.24
2017-02-26T09:57:40.801Z,21.4
2017-02-26T09:58:55.166Z,21.37
2017-02-26T10:00:08.289Z,21.38
2017-02-26T10:01:22.085Z,21.38
2017-02-26T10:02:36.519Z,21.35
2017-02-26T10:03:50.273Z,21.25
2017-02-26T10:05:04.685Z,21.24
2017-02-26T10:06:19.073Z,21.19
2017-02-26T10:07:32.833Z,21.07
2017-02-26T10:08:47.242Z,21.12
2017-02-26T10:10:01.633Z,21.17
2017-02-26T10:11:15.420Z,21.27
2017-02-26T10:12:29.809Z,21.38
2017-02-26T10:13:44.182Z,21.49
2017-02-26T10:14:57.969Z,21.61
2017-02-26T10:16:12.480Z,21.62
2017-02-26T10:17:26.246Z,21.71
2017-02-26T10:18:40.658Z,21.77
2017-02-26T10:19:55.047Z,21.86
2017-02-26T10:21:09.440Z,21.96
2017-02-26T10:22:23.884Z,22.09
2017-02-26T10:23:36.981Z,22.22
2017-02-26T10:24:50.768Z,22.51
2017-02-26T10:26:03.241Z,22.77
2017-02-26T10:27:18.091Z,22.79
2017-02-26T10:28:31.894Z,22.8
2017-02-26T10:29:46.291Z,22.7
2017-02-26T10:31:00.730Z,22.54
2017-02-26T10:32:15.111Z,22.49
2017-02-26T10:33:29.495Z,22.47
2017-02-26T10:34:43.274Z,22.68
2017-02-26T10:35:57.082Z,22.98
2017-02-26T10:37:11.528Z,23.48
2017-02-26T10:38:25.918Z,23.8
2017-02-26T10:39:40.327Z,24.34
2017-02-26T10:40:54.054Z,24.46
2017-02-26T10:42:07.817Z,24.22
2017-02-26T10:43:21.553Z,23.8
2017-02-26T10:44:35.323Z,23.57
2017-02-26T10:45:49.717Z,23.36
2017-02-26T10:47:04.139Z,23.28
2017-02-26T10:48:18.535Z,23.31
2017-02-26T10:49:32.946Z,23.66
2017-02-26T10:50:47.373Z,24.28
2017-02-26T10:52:00.531Z,24.93
2017-02-26T10:53:14.924Z,25.28
2017-02-26T10:54:28.707Z,25.5
2017-02-26T10:55:43.104Z,25.98
2017-02-26T10:56:57.509Z,26.47
2017-02-26T10:58:11.907Z,26.8
2017-02-26T10:59:26.289Z,27.4
2017-02-26T11:00:40.025Z,27.69
2017-02-26T11:01:54.452Z,27.55
2017-02-26T11:03:08.824Z,27.47
2017-02-26T11:04:23.216Z,27.04
2017-02-26T11:05:36.961Z,26.84
2017-02-26T11:06:51.326Z,26.3
2017-02-26T11:08:05.717Z,25.32
2017-02-26T11:09:19.504Z,25.02
2017-02-26T11:10:33.941Z,24.87
2017-02-26T11:11:47.724Z,24.6
2017-02-26T11:13:01.503Z,24.46
2017-02-26T11:14:15.921Z,24.42
2017-02-26T11:15:30.313Z,24.45
2017-02-26T11:16:44.065Z,24.62
2017-02-26T11:17:58.486Z,24.81
2017-02-26T11:19:12.296Z,25.08
2017-02-26T11:20:26.687Z,25.35
2017-02-26T11:21:40.451Z,25.55
2017-02-26T11:22:54.223Z,25.55
2017-02-26T11:24:07.403Z,25.2
2017-02-26T11:25:21.824Z,25.02
2017-02-26T11:26:36.235Z,25.05
2017-02-26T11:27:50.655Z,24.87
2017-02-26T11:29:05.033Z,24.47
2017-02-26T11:30:19.492Z,24.16
2017-02-26T11:31:33.921Z,23.98
2017-02-26T11:32:47.710Z,23.88
2017-02-26T11:34:02.135Z,23.85
2017-02-26T11:35:16.537Z,23.84
2017-02-26T11:36:29.654Z,24
2017-02-26T11:37:44.047Z,24.24
2017-02-26T11:38:57.775Z,24.3
2017-02-26T11:40:12.186Z,24.3
2017-02-26T11:41:25.956Z,24.37
2017-02-26T11:42:40.371Z,24.32
2017-02-26T11:43:54.751Z,24.09
2017-02-26T11:45:08.523Z,24.27
2017-02-26T11:46:22.926Z,24.37
2017-02-26T11:47:36.669Z,24.43
2017-02-26T11:48:51.059Z,24.53
2017-02-26T11:50:05.455Z,24.43
2017-02-26T11:51:19.193Z,24.02
2017-02-26T11:52:32.947Z,23.97
2017-02-26T11:53:47.320Z,24.15
2017-02-26T11:55:01.731Z,23.87
2017-02-26T11:56:16.146Z,23.7
2017-02-26T11:57:30.652Z,23.84
2017-02-26T11:58:45.094Z,24.06
2017-02-26T11:59:59.498Z,24.18
2017-02-26T12:01:13.908Z,24.15
2017-02-26T12:02:28.350Z,24.32
2017-02-26T12:03:41.450Z,24.46
2017-02-26T12:04:55.177Z,24.6
2017-02-26T12:06:09.639Z,24.53
2017-02-26T12:07:24.120Z,24.61
2017-02-26T12:08:38.515Z,24.95
2017-02-26T12:09:52.896Z,24.99
2017-02-26T12:11:06.674Z,25.2
2017-02-26T12:12:20.400Z,25.08
2017-02-26T12:13:34.783Z,25.18
2017-02-26T12:14:49.168Z,25.3
2017-02-26T12:16:03.566Z,25.33
2017-02-26T12:17:18.019Z,25.64
2017-02-26T12:18:31.823Z,25.83
2017-02-26T12:19:45.549Z,25.98
2017-02-26T12:20:59.995Z,25.98
2017-02-26T12:22:13.709Z,25.65
2017-02-26T12:23:27.480Z,25.61
2017-02-26T12:24:41.877Z,25.65
2017-02-26T12:25:56.292Z,25.09
2017-02-26T12:27:10.668Z,25.3
2017-02-26T12:28:25.049Z,25.73
2017-02-26T12:29:39.540Z,25.8
2017-02-26T12:30:53.973Z,26.18
2017-02-26T12:32:07.720Z,26.55
2017-02-26T12:33:22.136Z,26.85
2017-02-26T12:34:35.922Z,26.99
2017-02-26T12:35:50.303Z,27.27
2017-02-26T12:37:04.685Z,27.22
2017-02-26T12:38:19.089Z,26.77
2017-02-26T12:39:33.498Z,26.28
2017-02-26T12:40:47.248Z,26.12
2017-02-26T12:42:00.998Z,25.94
2017-02-26T12:43:15.418Z,25.65
2017-02-26T12:44:29.825Z,25.46
2017-02-26T12:45:44.234Z,25.45
2017-02-26T12:46:58.630Z,25.54
2017-02-26T12:48:13.036Z,25.87
2017-02-26T12:49:27.420Z,26.05
2017-02-26T12:50:40.551Z,25.92
2017-02-26T12:51:54.938Z,25.57
2017-02-26T12:53:09.369Z,25.3
2017-02-26T12:54:23.149Z,25.35
2017-02-26T12:55:37.619Z,25.61
2017-02-26T12:56:52.088Z,25.87
2017-02-26T12:58:06.495Z,26.02
2017-02-26T12:59:20.932Z,26.28
2017-02-26T13:00:35.317Z,26.77
2017-02-26T13:01:49.741Z,26.99
2017-02-26T13:03:04.123Z,26.54
2017-02-26T13:04:18.481Z,26.15
2017-02-26T13:05:32.913Z,26.06
2017-02-26T13:06:46.687Z,26.07
2017-02-26T13:08:01.112Z,25.91
2017-02-26T13:09:15.519Z,26.32
2017-02-26T13:10:29.925Z,26.65
2017-02-26T13:11:44.322Z,26.91
2017-02-26T13:12:58.751Z,27.27
2017-02-26T13:14:13.134Z,27.27
2017-02-26T13:15:26.938Z,27.41
2017-02-26T13:16:40.725Z,27.34
2017-02-26T13:17:55.124Z,26.66
2017-02-26T13:19:08.901Z,26.52
2017-02-26T13:20:22.720Z,26.54
2017-02-26T13:21:35.816Z,26.66
2017-02-26T13:22:49.608Z,27.07
2017-02-26T13:24:03.370Z,27.7
2017-02-26T13:25:17.771Z,28.21
2017-02-26T13:26:32.202Z,28.22
2017-02-26T13:27:45.950Z,28.56
2017-02-26T13:29:00.366Z,28.67
2017-02-26T13:30:14.742Z,28.56
2017-02-26T13:31:29.196Z,28.73
2017-02-26T13:32:42.941Z,28.48
2017-02-26T13:33:57.365Z,27.77
2017-02-26T13:35:11.157Z,27.43
2017-02-26T13:36:25.538Z,26.6
2017-02-26T13:37:39.340Z,26.4
2017-02-26T13:38:53.748Z,26.43
2017-02-26T13:40:08.141Z,26.6
2017-02-26T13:41:21.905Z,26.84
2017-02-26T13:42:36.306Z,26.69
2017-02-26T13:43:50.715Z,26.84
2017-02-26T13:45:04.497Z,27
2017-02-26T13:46:18.230Z,26.91
2017-02-26T13:47:32.615Z,26.72
2017-02-26T13:48:46.357Z,26.7
2017-02-26T13:50:00.775Z,26.66
2017-02-26T13:51:15.235Z,26.67
2017-02-26T13:52:29.657Z,26.77
2017-02-26T13:53:43.409Z,26.82
2017-02-26T13:54:58.436Z,26.7
2017-02-26T13:56:11.764Z,26.76
2017-02-26T13:57:26.195Z,27.55
2017-02-26T13:58:40.588Z,28.3
2017-02-26T13:59:54.318Z,28.89
2017-02-26T14:01:08.692Z,29.3
2017-02-26T14:02:23.108Z,29.65
2017-02-26T14:03:37.528Z,29.76
2017-02-26T14:04:51.297Z,29.71
2017-02-26T14:06:05.669Z,29.39
2017-02-26T14:07:19.424Z,28.93
2017-02-26T14:08:33.190Z,28.36
2017-02-26T14:09:47.576Z,27.99
2017-02-26T14:11:02.006Z,27.62
2017-02-26T14:12:16.499Z,27.24
2017-02-26T14:13:30.936Z,27.31
2017-02-26T14:14:44.684Z,27.69
2017-02-26T14:15:59.358Z,28.11
2017-02-26T14:17:13.156Z,28.37
2017-02-26T14:18:27.557Z,28.07
2017-02-26T14:19:41.968Z,27.46
2017-02-26T14:20:56.393Z,26.88
2017-02-26T14:22:09.510Z,26.72
2017-02-26T14:23:23.933Z,26.69
2017-02-26T14:24:38.361Z,26.65
2017-02-26T14:25:52.818Z,26.28
2017-02-26T14:27:06.601Z,26.17
2017-02-26T14:28:21.042Z,25.8
2017-02-26T14:29:35.468Z,25.73
2017-02-26T14:30:49.216Z,25.69
2017-02-26T14:32:03.605Z,25.85
2017-02-26T14:33:17.365Z,25.83
2017-02-26T14:34:31.776Z,25.7
2017-02-26T14:35:44.890Z,25.72
2017-02-26T14:36:59.330Z,25.58
2017-02-26T14:38:13.734Z,25.57
2017-02-26T14:39:28.163Z,25.57
2017-02-26T14:40:41.926Z,25.55
2017-02-26T14:41:56.346Z,25.54
2017-02-26T14:43:10.736Z,25.54
2017-02-26T14:44:25.194Z,25.58
2017-02-26T14:45:39.609Z,25.61
2017-02-26T14:46:54.085Z,25.75
2017-02-26T14:48:08.525Z,26.15
2017-02-26T14:49:22.902Z,26.55
2017-02-26T14:50:37.299Z,26.89
2017-02-26T14:51:51.657Z,27
2017-02-26T14:53:06.070Z,27.21
2017-02-26T14:54:20.493Z,27.5
2017-02-26T14:55:34.907Z,27.7
2017-02-26T14:56:48.709Z,27.47
2017-02-26T14:58:03.113Z,27.85
2017-02-26T14:59:17.470Z,28.49
2017-02-26T15:00:31.861Z,28.76
2017-02-26T15:01:46.287Z,28.58
2017-02-26T15:03:00.693Z,28.67
2017-02-26T15:04:15.104Z,29.05
2017-02-26T15:05:29.489Z,28.98
2017-02-26T15:06:43.906Z,28.61
2017-02-26T15:07:58.309Z,28.18
2017-02-26T15:09:12.069Z,27.75
2017-02-26T15:10:26.440Z,27.66
2017-02-26T15:11:40.839Z,27.59
2017-02-26T15:12:55.252Z,27.55
2017-02-26T15:14:08.411Z,27.44
2017-02-26T15:15:22.849Z,27.5
2017-02-26T15:16:35.976Z,27.34
2017-02-26T15:17:50.378Z,27.4
2017-02-26T15:19:04.789Z,27.47
2017-02-26T15:20:18.589Z,27.28
2017-02-26T15:21:33.005Z,27.03
2017-02-26T15:22:47.376Z,26.75
2017-02-26T15:24:01.780Z,26.58
2017-02-26T15:25:16.180Z,26.54
2017-02-26T15:26:30.621Z,26.47
2017-02-26T15:27:44.990Z,26.28
2017-02-26T15:28:58.095Z,26.3
2017-02-26T15:30:12.525Z,26.32
2017-02-26T15:31:26.974Z,26.4
2017-02-26T15:32:41.398Z,26.36
2017-02-26T15:33:55.140Z,26.5
2017-02-26T15:35:08.922Z,26.44
2017-02-26T15:36:23.361Z,26.55
2017-02-26T15:37:37.759Z,26.58
2017-02-26T15:38:52.157Z,26.69
2017-02-26T15:40:05.918Z,26.72
2017-02-26T15:41:19.037Z,26.63
2017-02-26T15:42:33.407Z,26.63
2017-02-26T15:43:47.825Z,26.58
2017-02-26T15:45:02.269Z,26.51
2017-02-26T15:46:16.066Z,26.47
2017-02-26T15:47:29.849Z,26.52
2017-02-26T15:48:44.264Z,26.57
2017-02-26T15:49:58.702Z,26.58
2017-02-26T15:51:12.455Z,26.69
2017-02-26T15:52:26.838Z,26.84
2017-02-26T15:53:41.221Z,27.07
2017-02-26T15:54:55.644Z,27.47
2017-02-26T15:56:10.026Z,27.66
2017-02-26T15:57:24.428Z,27.66
2017-02-26T15:58:38.198Z,27.78
2017-02-26T15:59:52.599Z,27.81